VOI559 MMMY-KMAF
Flight info
| Callsign | VOI559 |
|---|---|
| Flight time | 1h 2m |
| Altitude | 38000 |
| Route | MTY1A MTY UJ45 PNG DCT DENSE DCT KOBLE DCT LOWGO |
| Aircraft | A20N/M-SDE2E3FGHIRWXY/LB1 |
Departure
| Time | 2026-04-18 05:00 |
|---|---|
| Airport | Monterrey International Airport (MMMY) |
Arrival
| Time | 2026-04-18 06:02 |
|---|---|
| Airport | Midland International Air and Space Port (KMAF) |
| Time | Latitude | Longitude | Altitude | Speed | Heading |
|---|---|---|---|---|---|
| 2026-04-18 04:43 | 25.77587 | -100.11079 | 1280 ft | 0 kts | 248° |
| 2026-04-18 04:52 | 25.77588 | -100.11078 | 1280 ft | 0 kts | 248° |
| 2026-04-18 04:52 | 25.77593 | -100.11065 | 1280 ft | 3 kts | 248° |
| 2026-04-18 04:52 | 25.77600 | -100.11047 | 1280 ft | 3 kts | 252° |
| 2026-04-18 04:53 | 25.77603 | -100.11026 | 1284 ft | 3 kts | 280° |
| 2026-04-18 04:53 | 25.77597 | -100.11006 | 1281 ft | 3 kts | 313° |
| 2026-04-18 04:53 | 25.77582 | -100.10992 | 1282 ft | 2 kts | 330° |
| 2026-04-18 04:53 | 25.77574 | -100.10987 | 1280 ft | 1 kts | 331° |
| 2026-04-18 04:56 | 25.77584 | -100.10993 | 1280 ft | 4 kts | 331° |
| 2026-04-18 04:56 | 25.77623 | -100.11027 | 1280 ft | 10 kts | 309° |
| 2026-04-18 04:56 | 25.77667 | -100.11103 | 1280 ft | 14 kts | 299° |
| 2026-04-18 04:56 | 25.77724 | -100.11158 | 1282 ft | 9 kts | 27° |
| 2026-04-18 04:57 | 25.77787 | -100.11114 | 1280 ft | 11 kts | 32° |
| 2026-04-18 04:57 | 25.77841 | -100.11090 | 1280 ft | 9 kts | 349° |
| 2026-04-18 04:57 | 25.77883 | -100.11151 | 1280 ft | 12 kts | 301° |
| 2026-04-18 04:57 | 25.77933 | -100.11244 | 1280 ft | 16 kts | 301° |
| 2026-04-18 04:58 | 25.77998 | -100.11361 | 1281 ft | 18 kts | 301° |
| 2026-04-18 04:58 | 25.78062 | -100.11477 | 1281 ft | 19 kts | 301° |
| 2026-04-18 04:58 | 25.78133 | -100.11606 | 1281 ft | 20 kts | 301° |
| 2026-04-18 04:58 | 25.78202 | -100.11733 | 1281 ft | 18 kts | 301° |
| 2026-04-18 04:59 | 25.78274 | -100.11804 | 1281 ft | 14 kts | 19° |
| 2026-04-18 04:59 | 25.78360 | -100.11746 | 1281 ft | 15 kts | 31° |
| 2026-04-18 04:59 | 25.78389 | -100.11666 | 1282 ft | 12 kts | 119° |
| 2026-04-18 04:59 | 25.78280 | -100.11470 | 1281 ft | 64 kts | 120° |
| 2026-04-18 05:00 | 25.77927 | -100.10827 | 1280 ft | 127 kts | 121° |
| 2026-04-18 05:00 | 25.77403 | -100.09880 | 1627 ft | 148 kts | 122° |
| 2026-04-18 05:00 | 25.76834 | -100.08889 | 2219 ft | 158 kts | 121° |
| 2026-04-18 05:00 | 25.76259 | -100.07841 | 2934 ft | 158 kts | 123° |
| 2026-04-18 05:01 | 25.75685 | -100.06764 | 3489 ft | 170 kts | 123° |
| 2026-04-18 05:01 | 25.75039 | -100.05569 | 3881 ft | 192 kts | 124° |
| 2026-04-18 05:01 | 25.74294 | -100.04211 | 4292 ft | 220 kts | 124° |
| 2026-04-18 05:01 | 25.73453 | -100.02683 | 4859 ft | 244 kts | 123° |
| 2026-04-18 05:02 | 25.72870 | -100.00833 | 5492 ft | 265 kts | 97° |
| 2026-04-18 05:02 | 25.73131 | -99.98832 | 6468 ft | 270 kts | 69° |
| 2026-04-18 05:02 | 25.74208 | -99.97109 | 7339 ft | 280 kts | 44° |
| 2026-04-18 05:02 | 25.75932 | -99.96029 | 8140 ft | 293 kts | 18° |
| 2026-04-18 05:03 | 25.77982 | -99.95857 | 8991 ft | 300 kts | 352° |
| 2026-04-18 05:03 | 25.79938 | -99.96653 | 9903 ft | 302 kts | 327° |
| 2026-04-18 05:03 | 25.81672 | -99.98015 | 10568 ft | 314 kts | 321° |
| 2026-04-18 05:03 | 25.83502 | -99.99498 | 10896 ft | 337 kts | 323° |
| 2026-04-18 05:04 | 25.85539 | -100.00948 | 11334 ft | 353 kts | 327° |
| 2026-04-18 05:04 | 25.87686 | -100.02297 | 12157 ft | 356 kts | 329° |
| 2026-04-18 05:04 | 25.89887 | -100.03592 | 13007 ft | 360 kts | 330° |
| 2026-04-18 05:04 | 25.92132 | -100.04879 | 13783 ft | 365 kts | 330° |
| 2026-04-18 05:05 | 25.94403 | -100.06169 | 14553 ft | 367 kts | 329° |
| 2026-04-18 05:05 | 25.96685 | -100.07467 | 15328 ft | 370 kts | 329° |
| 2026-04-18 05:05 | 25.98986 | -100.08781 | 16106 ft | 373 kts | 329° |
| 2026-04-18 05:05 | 26.01299 | -100.10104 | 16866 ft | 376 kts | 329° |
| 2026-04-18 05:06 | 26.03640 | -100.11446 | 17605 ft | 380 kts | 328° |
| 2026-04-18 05:06 | 26.05999 | -100.12800 | 18318 ft | 384 kts | 328° |
| 2026-04-18 05:06 | 26.08403 | -100.14129 | 18954 ft | 389 kts | 332° |
| 2026-04-18 05:06 | 26.10972 | -100.15155 | 19610 ft | 396 kts | 339° |
| 2026-04-18 05:07 | 26.13690 | -100.15807 | 20238 ft | 404 kts | 347° |
| 2026-04-18 05:07 | 26.16500 | -100.16212 | 20858 ft | 408 kts | 348° |
| 2026-04-18 05:07 | 26.19289 | -100.16621 | 21463 ft | 412 kts | 347° |
| 2026-04-18 05:07 | 26.22149 | -100.17048 | 22068 ft | 416 kts | 347° |
| 2026-04-18 05:08 | 26.25029 | -100.17480 | 22690 ft | 420 kts | 347° |
| 2026-04-18 05:08 | 26.27943 | -100.17917 | 23305 ft | 423 kts | 347° |
| 2026-04-18 05:08 | 26.30869 | -100.18356 | 23841 ft | 425 kts | 347° |
| 2026-04-18 05:08 | 26.33823 | -100.18799 | 24174 ft | 431 kts | 347° |
| 2026-04-18 05:09 | 26.36812 | -100.19250 | 24501 ft | 436 kts | 347° |
| 2026-04-18 05:09 | 26.39832 | -100.19702 | 24998 ft | 439 kts | 347° |
| 2026-04-18 05:09 | 26.42879 | -100.20155 | 25467 ft | 443 kts | 347° |
| 2026-04-18 05:09 | 26.45957 | -100.20615 | 25907 ft | 448 kts | 347° |
| 2026-04-18 05:10 | 26.49058 | -100.21080 | 26341 ft | 452 kts | 347° |
| 2026-04-18 05:10 | 26.52163 | -100.21546 | 26758 ft | 456 kts | 346° |
| 2026-04-18 05:10 | 26.55315 | -100.22019 | 27206 ft | 459 kts | 346° |
| 2026-04-18 05:10 | 26.58493 | -100.22496 | 27626 ft | 463 kts | 346° |
| 2026-04-18 05:11 | 26.61699 | -100.22977 | 28047 ft | 467 kts | 346° |
| 2026-04-18 05:11 | 26.64938 | -100.23464 | 28451 ft | 470 kts | 346° |
| 2026-04-18 05:11 | 26.68126 | -100.23943 | 28869 ft | 474 kts | 346° |
| 2026-04-18 05:11 | 26.71420 | -100.24438 | 29246 ft | 477 kts | 346° |
| 2026-04-18 05:12 | 26.74717 | -100.24934 | 29634 ft | 481 kts | 346° |
| 2026-04-18 05:12 | 26.78046 | -100.25435 | 30004 ft | 484 kts | 346° |
| 2026-04-18 05:12 | 26.81395 | -100.25939 | 30359 ft | 487 kts | 346° |
| 2026-04-18 05:12 | 26.84776 | -100.26448 | 30715 ft | 490 kts | 345° |
| 2026-04-18 05:13 | 26.88155 | -100.26957 | 31126 ft | 491 kts | 345° |
| 2026-04-18 05:13 | 26.91535 | -100.27465 | 31614 ft | 490 kts | 345° |
| 2026-04-18 05:13 | 26.94910 | -100.27972 | 32116 ft | 488 kts | 344° |
| 2026-04-18 05:13 | 26.98269 | -100.28477 | 32610 ft | 487 kts | 343° |
| 2026-04-18 05:14 | 27.01619 | -100.28982 | 33102 ft | 485 kts | 343° |
| 2026-04-18 05:14 | 27.04959 | -100.29487 | 33582 ft | 484 kts | 343° |
| 2026-04-18 05:14 | 27.08293 | -100.29991 | 34027 ft | 482 kts | 342° |
| 2026-04-18 05:14 | 27.11615 | -100.30496 | 34424 ft | 480 kts | 342° |
| 2026-04-18 05:15 | 27.14920 | -100.30998 | 34819 ft | 479 kts | 342° |
| 2026-04-18 05:15 | 27.18220 | -100.31501 | 35188 ft | 478 kts | 342° |
| 2026-04-18 05:15 | 27.21510 | -100.32001 | 35553 ft | 477 kts | 342° |
| 2026-04-18 05:15 | 27.24789 | -100.32501 | 35908 ft | 476 kts | 342° |
| 2026-04-18 05:16 | 27.28079 | -100.33002 | 36248 ft | 475 kts | 342° |
| 2026-04-18 05:16 | 27.31349 | -100.33500 | 36591 ft | 474 kts | 342° |
| 2026-04-18 05:16 | 27.34611 | -100.33997 | 36923 ft | 473 kts | 342° |
| 2026-04-18 05:16 | 27.37825 | -100.34487 | 37244 ft | 472 kts | 342° |
| 2026-04-18 05:17 | 27.41073 | -100.34983 | 37566 ft | 471 kts | 342° |
| 2026-04-18 05:17 | 27.44316 | -100.35478 | 37790 ft | 470 kts | 342° |
| 2026-04-18 05:17 | 27.50786 | -100.36467 | 37817 ft | 468 kts | 342° |
| 2026-04-18 05:18 | 27.57234 | -100.37456 | 37818 ft | 468 kts | 341° |
| 2026-04-18 05:18 | 27.63695 | -100.38447 | 37823 ft | 468 kts | 341° |
| 2026-04-18 05:19 | 27.70152 | -100.39438 | 37822 ft | 468 kts | 341° |
| 2026-04-18 05:19 | 27.76605 | -100.40430 | 37823 ft | 469 kts | 341° |
| 2026-04-18 05:20 | 27.83076 | -100.41425 | 37822 ft | 469 kts | 341° |
| 2026-04-18 05:20 | 27.89549 | -100.42421 | 37830 ft | 470 kts | 341° |
| 2026-04-18 05:21 | 27.96034 | -100.43420 | 37825 ft | 470 kts | 341° |
| 2026-04-18 05:21 | 28.02521 | -100.44421 | 37823 ft | 471 kts | 341° |
| 2026-04-18 05:22 | 28.08983 | -100.45419 | 37834 ft | 471 kts | 341° |
| 2026-04-18 05:22 | 28.15488 | -100.46424 | 37828 ft | 472 kts | 341° |
| 2026-04-18 05:23 | 28.22005 | -100.47433 | 37824 ft | 473 kts | 341° |
| 2026-04-18 05:23 | 28.28529 | -100.48444 | 37833 ft | 473 kts | 341° |
| 2026-04-18 05:24 | 28.35061 | -100.49457 | 37836 ft | 474 kts | 341° |
| 2026-04-18 05:24 | 28.41597 | -100.50472 | 37831 ft | 475 kts | 341° |
| 2026-04-18 05:25 | 28.48156 | -100.51492 | 37832 ft | 475 kts | 341° |
| 2026-04-18 05:25 | 28.54715 | -100.52513 | 37835 ft | 476 kts | 341° |
| 2026-04-18 05:26 | 28.61236 | -100.53529 | 37841 ft | 476 kts | 341° |
| 2026-04-18 05:26 | 28.67806 | -100.54541 | 37841 ft | 477 kts | 341° |
| 2026-04-18 05:27 | 28.74439 | -100.55537 | 37840 ft | 478 kts | 341° |
| 2026-04-18 05:27 | 28.80991 | -100.56526 | 37837 ft | 478 kts | 341° |
| 2026-04-18 05:28 | 28.87583 | -100.57524 | 37835 ft | 478 kts | 341° |
| 2026-04-18 05:28 | 28.94182 | -100.58526 | 37840 ft | 478 kts | 341° |
| 2026-04-18 05:29 | 29.00784 | -100.59529 | 37837 ft | 478 kts | 341° |
| 2026-04-18 05:29 | 29.07381 | -100.60532 | 37840 ft | 478 kts | 341° |
| 2026-04-18 05:30 | 29.13920 | -100.61686 | 37839 ft | 465 kts | 332° |
| 2026-04-18 05:30 | 29.16915 | -100.62893 | 37833 ft | 448 kts | 322° |
| 2026-04-18 05:30 | 29.19587 | -100.64582 | 37834 ft | 431 kts | 313° |
| 2026-04-18 05:31 | 29.21885 | -100.66632 | 37825 ft | 417 kts | 304° |
| 2026-04-18 05:31 | 29.23900 | -100.68959 | 37821 ft | 411 kts | 302° |
| 2026-04-18 05:31 | 29.27889 | -100.73646 | 37833 ft | 411 kts | 302° |
| 2026-04-18 05:32 | 29.31884 | -100.78323 | 37832 ft | 411 kts | 302° |
| 2026-04-18 05:32 | 29.35877 | -100.83009 | 37830 ft | 411 kts | 302° |
| 2026-04-18 05:33 | 29.39861 | -100.87693 | 37858 ft | 411 kts | 302° |
| 2026-04-18 05:33 | 29.43855 | -100.92394 | 37861 ft | 411 kts | 301° |
| 2026-04-18 05:34 | 29.47843 | -100.97094 | 37857 ft | 411 kts | 301° |
| 2026-04-18 05:34 | 29.51828 | -101.01795 | 37849 ft | 411 kts | 301° |
| 2026-04-18 05:35 | 29.55812 | -101.06502 | 37846 ft | 411 kts | 301° |
| 2026-04-18 05:35 | 29.59795 | -101.11212 | 37836 ft | 411 kts | 301° |
| 2026-04-18 05:36 | 29.63752 | -101.15898 | 37822 ft | 411 kts | 301° |
| 2026-04-18 05:36 | 29.67723 | -101.20605 | 37822 ft | 411 kts | 301° |
| 2026-04-18 05:37 | 29.71704 | -101.25330 | 37815 ft | 410 kts | 301° |
| 2026-04-18 05:37 | 29.75674 | -101.30048 | 37822 ft | 410 kts | 301° |
| 2026-04-18 05:38 | 29.79285 | -101.34342 | 37566 ft | 410 kts | 301° |
| 2026-04-18 05:38 | 29.81264 | -101.36698 | 37313 ft | 409 kts | 301° |
| 2026-04-18 05:38 | 29.83240 | -101.39053 | 37066 ft | 409 kts | 300° |
| 2026-04-18 05:39 | 29.85287 | -101.41355 | 36806 ft | 419 kts | 306° |
| 2026-04-18 05:39 | 29.87689 | -101.43375 | 36557 ft | 435 kts | 315° |
| 2026-04-18 05:39 | 29.90435 | -101.44994 | 36316 ft | 453 kts | 324° |
| 2026-04-18 05:39 | 29.93467 | -101.46187 | 36085 ft | 464 kts | 329° |
| 2026-04-18 05:40 | 29.96546 | -101.47302 | 35838 ft | 464 kts | 329° |
| 2026-04-18 05:40 | 29.99626 | -101.48425 | 35604 ft | 463 kts | 329° |
| 2026-04-18 05:40 | 30.02704 | -101.49556 | 35374 ft | 464 kts | 329° |
| 2026-04-18 05:40 | 30.05774 | -101.50686 | 35139 ft | 463 kts | 329° |
| 2026-04-18 05:41 | 30.08843 | -101.51819 | 34910 ft | 463 kts | 329° |
| 2026-04-18 05:41 | 30.11916 | -101.52954 | 34683 ft | 464 kts | 329° |
| 2026-04-18 05:41 | 30.13951 | -101.53706 | 34537 ft | 463 kts | 329° |
| 2026-04-18 05:41 | 30.18054 | -101.55223 | 34224 ft | 463 kts | 329° |
| 2026-04-18 05:42 | 30.20090 | -101.55978 | 34086 ft | 464 kts | 329° |
| 2026-04-18 05:42 | 30.23164 | -101.57117 | 33870 ft | 464 kts | 329° |
| 2026-04-18 05:42 | 30.26238 | -101.58256 | 33623 ft | 464 kts | 330° |
| 2026-04-18 05:42 | 30.30310 | -101.59765 | 33283 ft | 464 kts | 330° |
| 2026-04-18 05:43 | 30.33383 | -101.60905 | 33029 ft | 463 kts | 330° |
| 2026-04-18 05:43 | 30.35454 | -101.61674 | 32864 ft | 463 kts | 330° |
| 2026-04-18 05:43 | 30.38526 | -101.62816 | 32613 ft | 463 kts | 330° |
| 2026-04-18 05:43 | 30.41593 | -101.63956 | 32369 ft | 463 kts | 330° |
| 2026-04-18 05:44 | 30.44657 | -101.65096 | 32119 ft | 463 kts | 330° |
| 2026-04-18 05:44 | 30.47728 | -101.66239 | 31875 ft | 463 kts | 331° |
| 2026-04-18 05:44 | 30.50788 | -101.67378 | 31635 ft | 462 kts | 331° |
| 2026-04-18 05:44 | 30.53848 | -101.68517 | 31390 ft | 461 kts | 331° |
| 2026-04-18 05:45 | 30.56902 | -101.69656 | 31152 ft | 461 kts | 331° |
| 2026-04-18 05:45 | 30.59953 | -101.70795 | 30917 ft | 461 kts | 331° |
| 2026-04-18 05:45 | 30.63003 | -101.71933 | 30684 ft | 459 kts | 331° |
| 2026-04-18 05:45 | 30.66048 | -101.73070 | 30449 ft | 458 kts | 331° |
| 2026-04-18 05:46 | 30.69067 | -101.74197 | 30219 ft | 454 kts | 331° |
| 2026-04-18 05:46 | 30.72061 | -101.75313 | 29994 ft | 450 kts | 331° |
| 2026-04-18 05:46 | 30.75036 | -101.76427 | 29739 ft | 448 kts | 331° |
| 2026-04-18 05:46 | 30.77998 | -101.77538 | 29461 ft | 447 kts | 331° |
| 2026-04-18 05:47 | 30.80918 | -101.78635 | 28965 ft | 448 kts | 332° |
| 2026-04-18 05:47 | 30.83885 | -101.79751 | 28276 ft | 447 kts | 332° |
| 2026-04-18 05:47 | 30.86839 | -101.80859 | 27596 ft | 443 kts | 332° |
| 2026-04-18 05:47 | 30.89756 | -101.81953 | 26934 ft | 439 kts | 332° |
| 2026-04-18 05:48 | 30.92659 | -101.83044 | 26257 ft | 436 kts | 332° |
| 2026-04-18 05:48 | 30.95534 | -101.84126 | 25599 ft | 433 kts | 333° |
| 2026-04-18 05:48 | 30.98402 | -101.85206 | 24915 ft | 431 kts | 333° |
| 2026-04-18 05:48 | 31.01246 | -101.86278 | 24221 ft | 430 kts | 333° |
| 2026-04-18 05:49 | 31.04082 | -101.87348 | 23550 ft | 428 kts | 333° |
| 2026-04-18 05:49 | 31.06907 | -101.88415 | 22796 ft | 427 kts | 334° |
| 2026-04-18 05:49 | 31.09717 | -101.89474 | 22193 ft | 421 kts | 334° |
| 2026-04-18 05:49 | 31.12489 | -101.90519 | 21518 ft | 417 kts | 334° |
| 2026-04-18 05:50 | 31.15244 | -101.91560 | 20861 ft | 414 kts | 334° |
| 2026-04-18 05:50 | 31.17970 | -101.92589 | 20178 ft | 408 kts | 334° |
| 2026-04-18 05:50 | 31.20651 | -101.93603 | 19525 ft | 402 kts | 335° |
| 2026-04-18 05:50 | 31.23300 | -101.94605 | 18837 ft | 397 kts | 335° |
| 2026-04-18 05:51 | 31.25901 | -101.95590 | 18187 ft | 391 kts | 335° |
| 2026-04-18 05:51 | 31.28465 | -101.96562 | 17557 ft | 384 kts | 335° |
| 2026-04-18 05:51 | 31.30978 | -101.97515 | 16964 ft | 376 kts | 336° |
| 2026-04-18 05:51 | 31.33446 | -101.98452 | 16357 ft | 370 kts | 336° |
| 2026-04-18 05:52 | 31.35877 | -101.99376 | 15744 ft | 365 kts | 336° |
| 2026-04-18 05:52 | 31.38281 | -102.00291 | 15128 ft | 361 kts | 337° |
| 2026-04-18 05:52 | 31.40663 | -102.01196 | 14524 ft | 359 kts | 338° |
| 2026-04-18 05:52 | 31.43042 | -102.01818 | 13922 ft | 364 kts | 349° |
| 2026-04-18 05:53 | 31.45670 | -102.01915 | 13280 ft | 368 kts | 1° |
| 2026-04-18 05:53 | 31.48177 | -102.01572 | 12668 ft | 367 kts | 4° |
| 2026-04-18 05:53 | 31.50737 | -102.01198 | 12046 ft | 365 kts | 4° |
| 2026-04-18 05:53 | 31.53218 | -102.00843 | 11436 ft | 361 kts | 4° |
| 2026-04-18 05:54 | 31.55697 | -102.00491 | 10796 ft | 357 kts | 4° |
| 2026-04-18 05:54 | 31.58142 | -102.00143 | 10249 ft | 350 kts | 4° |
| 2026-04-18 05:54 | 31.60505 | -101.99803 | 10048 ft | 333 kts | 4° |
| 2026-04-18 05:54 | 31.62739 | -101.99479 | 9894 ft | 315 kts | 4° |
| 2026-04-18 05:55 | 31.64859 | -101.99171 | 9572 ft | 300 kts | 4° |
| 2026-04-18 05:55 | 31.66906 | -101.98877 | 9179 ft | 292 kts | 4° |
| 2026-04-18 05:55 | 31.68928 | -101.98588 | 8910 ft | 294 kts | 4° |
| 2026-04-18 05:55 | 31.70973 | -101.98297 | 8490 ft | 296 kts | 4° |
| 2026-04-18 05:56 | 31.73017 | -101.98005 | 7996 ft | 295 kts | 4° |
| 2026-04-18 05:56 | 31.75050 | -101.97713 | 7410 ft | 294 kts | 4° |
| 2026-04-18 05:56 | 31.77077 | -101.97422 | 6830 ft | 292 kts | 4° |
| 2026-04-18 05:56 | 31.79090 | -101.97132 | 6237 ft | 291 kts | 4° |
| 2026-04-18 05:57 | 31.83028 | -101.96623 | 5353 ft | 275 kts | 354° |
| 2026-04-18 05:57 | 31.84814 | -101.97178 | 4978 ft | 263 kts | 327° |
| 2026-04-18 05:57 | 31.86112 | -101.98621 | 4725 ft | 257 kts | 298° |
| 2026-04-18 05:58 | 31.86850 | -102.00472 | 4658 ft | 243 kts | 290° |
| 2026-04-18 05:58 | 31.87507 | -102.02222 | 4658 ft | 223 kts | 290° |
| 2026-04-18 05:58 | 31.88112 | -102.03817 | 4673 ft | 206 kts | 290° |
| 2026-04-18 05:58 | 31.88675 | -102.05305 | 4671 ft | 193 kts | 290° |
| 2026-04-18 05:59 | 31.89209 | -102.06717 | 4687 ft | 190 kts | 290° |
| 2026-04-18 05:59 | 31.89726 | -102.08096 | 4709 ft | 176 kts | 290° |
| 2026-04-18 05:59 | 31.90188 | -102.09313 | 4693 ft | 148 kts | 290° |
| 2026-04-18 05:59 | 31.90577 | -102.10342 | 4703 ft | 133 kts | 289° |
| 2026-04-18 06:00 | 31.90958 | -102.11346 | 4644 ft | 135 kts | 290° |
| 2026-04-18 06:00 | 31.91346 | -102.12338 | 4522 ft | 134 kts | 288° |
| 2026-04-18 06:00 | 31.91692 | -102.13346 | 4358 ft | 134 kts | 285° |
| 2026-04-18 06:00 | 31.92022 | -102.14384 | 4085 ft | 135 kts | 285° |
| 2026-04-18 06:01 | 31.92415 | -102.15395 | 3826 ft | 137 kts | 295° |
| 2026-04-18 06:01 | 31.92803 | -102.16404 | 3588 ft | 133 kts | 292° |
| 2026-04-18 06:01 | 31.93181 | -102.17414 | 3341 ft | 137 kts | 294° |
| 2026-04-18 06:01 | 31.93566 | -102.18434 | 3083 ft | 136 kts | 293° |
| 2026-04-18 06:02 | 31.93956 | -102.19473 | 2899 ft | 139 kts | 294° |
| 2026-04-18 06:02 | 31.94325 | -102.20452 | 2870 ft | 110 kts | 294° |
| 2026-04-18 06:02 | 31.94536 | -102.21013 | 2874 ft | 36 kts | 297° |
| 2026-04-18 06:02 | 31.94600 | -102.21175 | 2875 ft | 21 kts | 293° |
| 2026-04-18 06:03 | 31.94662 | -102.21347 | 2875 ft | 24 kts | 293° |
| 2026-04-18 06:03 | 31.94719 | -102.21502 | 2874 ft | 21 kts | 293° |
| 2026-04-18 06:03 | 31.94731 | -102.21636 | 2875 ft | 15 kts | 243° |
| 2026-04-18 06:03 | 31.94653 | -102.21681 | 2877 ft | 13 kts | 144° |
| 2026-04-18 06:04 | 31.94607 | -102.21575 | 2878 ft | 17 kts | 114° |
| 2026-04-18 06:04 | 31.94551 | -102.21431 | 2876 ft | 22 kts | 115° |
| 2026-04-18 06:04 | 31.94489 | -102.21260 | 2874 ft | 20 kts | 111° |
| 2026-04-18 06:04 | 31.94431 | -102.21100 | 2872 ft | 23 kts | 114° |
| 2026-04-18 06:05 | 31.94364 | -102.20926 | 2869 ft | 24 kts | 115° |
| 2026-04-18 06:05 | 31.94294 | -102.20748 | 2868 ft | 23 kts | 114° |
| 2026-04-18 06:05 | 31.94243 | -102.20615 | 2868 ft | 17 kts | 123° |
| 2026-04-18 06:05 | 31.94151 | -102.20574 | 2869 ft | 15 kts | 175° |
| 2026-04-18 06:06 | 31.94040 | -102.20562 | 2868 ft | 18 kts | 174° |
| 2026-04-18 06:06 | 31.93918 | -102.20550 | 2867 ft | 18 kts | 175° |
| 2026-04-18 06:06 | 31.93815 | -102.20554 | 2869 ft | 14 kts | 203° |
| 2026-04-18 06:06 | 31.93777 | -102.20643 | 2870 ft | 11 kts | 268° |
| 2026-04-18 06:07 | 31.93777 | -102.20687 | 2869 ft | 4 kts | 271° |
| 2026-04-18 06:07 | 31.93778 | -102.20697 | 2869 ft | 0 kts | 273° |